sensor_id;sensor_type;location;lat;lon;timestamp;P1;durP1;ratioP1;P2;durP2;ratioP2
10582;SDS011;33679;51.218;6.786;2024-01-15T00:02:23;22.73;;;11.63;;
10582;SDS011;33679;51.218;6.786;2024-01-15T00:04:56;23.23;;;11.93;;
10582;SDS011;33679;51.218;6.786;2024-01-15T00:07:29;28.20;;;13.07;;
10582;SDS011;33679;51.218;6.786;2024-01-15T00:10:03;24.30;;;11.70;;
10582;SDS011;33679;51.218;6.786;2024-01-15T00:12:36;37.50;;;12.93;;
10582;SDS011;33679;51.218;6.786;2024-01-15T00:15:08;24.60;;;10.47;;
10582;SDS011;33679;51.218;6.786;2024-01-15T00:17:45;25.13;;;12.07;;
10582;SDS011;33679;51.218;6.786;2024-01-15T00:20:17;28.73;;;13.33;;
10582;SDS011;33679;51.218;6.786;2024-01-15T00:22:50;24.50;;;13.27;;
10582;SDS011;33679;51.218;6.786;2024-01-15T00:25:25;26.33;;;12.07;;
10582;SDS011;33679;51.218;6.786;2024-01-15T00:27:58;32.30;;;12.60;;
10582;SDS011;33679;51.218;6.786;2024-01-15T00:30:32;27.50;;;12.37;;
10582;SDS011;33679;51.218;6.786;2024-01-15T00:33:07;31.27;;;12.33;;
10582;SDS011;33679;51.218;6.786;2024-01-15T00:35:42;29.57;;;14.00;;
10582;SDS011;33679;51.218;6.786;2024-01-15T00:38:15;25.73;;;11.63;;
10582;SDS011;33679;51.218;6.786;2024-01-15T00:40:49;22.17;;;10.10;;
10582;SDS011;33679;51.218;6.786;2024-01-15T00:43:22;26.90;;;12.50;;
10582;SDS011;33679;51.218;6.786;2024-01-15T00:45:54;21.53;;;10.77;;
10582;SDS011;33679;51.218;6.786;2024-01-15T00:48:27;23.30;;;11.10;;
10582;SDS011;33679;51.218;6.786;2024-01-15T00:51:02;25.73;;;11.80;;
10582;SDS011;33679;51.218;6.786;2024-01-15T00:53:35;24.30;;;11.47;;
10582;SDS011;33679;51.218;6.786;2024-01-15T00:56:10;24.17;;;11.77;;
10582;SDS011;33679;51.218;6.786;2024-01-15T00:58:54;29.30;;;11.93;;
10582;SDS011;33679;51.218;6.786;2024-01-15T01:01:28;25.33;;;11.50;;
10582;SDS011;33679;51.218;6.786;2024-01-15T01:04:03;23.30;;;12.27;;
10582;SDS011;33679;51.218;6.786;2024-01-15T01:06:37;22.67;;;12.00;;
10582;SDS011;33679;51.218;6.786;2024-01-15T01:09:12;25.80;;;11.83;;
10582;SDS011;33679;51.218;6.786;2024-01-15T01:11:46;25.37;;;12.13;;
10582;SDS011;33679;51.218;6.786;2024-01-15T01:14:19;21.03;;;10.43;;
10582;SDS011;33679;51.218;6.786;2024-01-15T01:16:51;22.70;;;10.97;;
10582;SDS011;33679;51.218;6.786;2024-01-15T01:19:24;21.20;;;11.60;;
10582;SDS011;33679;51.218;6.786;2024-01-15T01:21:58;20.17;;;11.30;;
10582;SDS011;33679;51.218;6.786;2024-01-15T01:24:31;25.43;;;10.93;;
10582;SDS011;33679;51.218;6.786;2024-01-15T01:27:05;23.13;;;11.20;;
10582;SDS011;33679;51.218;6.786;2024-01-15T01:29:40;27.20;;;12.80;;
10582;SDS011;33679;51.218;6.786;2024-01-15T01:32:14;23.30;;;10.43;;
10582;SDS011;33679;51.218;6.786;2024-01-15T01:34:47;20.77;;;10.13;;
10582;SDS011;33679;51.218;6.786;2024-01-15T01:37:19;24.70;;;10.60;;
10582;SDS011;33679;51.218;6.786;2024-01-15T01:39:52;21.70;;;10.93;;
10582;SDS011;33679;51.218;6.786;2024-01-15T01:42:28;21.00;;;9.73;;
10582;SDS011;33679;51.218;6.786;2024-01-15T01:45:01;23.13;;;11.60;;
10582;SDS011;33679;51.218;6.786;2024-01-15T01:47:39;23.00;;;10.60;;
10582;SDS011;33679;51.218;6.786;2024-01-15T01:50:13;23.40;;;10.10;;
10582;SDS011;33679;51.218;6.786;2024-01-15T01:52:48;25.50;;;11.47;;
10582;SDS011;33679;51.218;6.786;2024-01-15T01:55:21;26.00;;;11.40;;
10582;SDS011;33679;51.218;6.786;2024-01-15T01:57:59;20.90;;;10.07;;
10582;SDS011;33679;51.218;6.786;2024-01-15T02:00:34;19.20;;;10.33;;
10582;SDS011;33679;51.218;6.786;2024-01-15T02:03:10;20.27;;;10.47;;
10582;SDS011;33679;51.218;6.786;2024-01-15T02:05:43;18.30;;;9.57;;
10582;SDS011;33679;51.218;6.786;2024-01-15T02:08:16;19.87;;;10.53;;
10582;SDS011;33679;51.218;6.786;2024-01-15T02:10:50;24.07;;;11.00;;
10582;SDS011;33679;51.218;6.786;2024-01-15T02:13:24;20.83;;;9.73;;
10582;SDS011;33679;51.218;6.786;2024-01-15T02:15:57;19.37;;;10.23;;
10582;SDS011;33679;51.218;6.786;2024-01-15T02:18:43;24.93;;;10.33;;
10582;SDS011;33679;51.218;6.786;2024-01-15T02:21:16;18.40;;;9.10;;
10582;SDS011;33679;51.218;6.786;2024-01-15T02:23:53;17.27;;;8.80;;
10582;SDS011;33679;51.218;6.786;2024-01-15T02:26:29;17.80;;;9.10;;
10582;SDS011;33679;51.218;6.786;2024-01-15T02:29:01;15.97;;;8.47;;
10582;SDS011;33679;51.218;6.786;2024-01-15T02:31:34;20.77;;;10.03;;
10582;SDS011;33679;51.218;6.786;2024-01-15T02:34:07;27.80;;;9.03;;
10582;SDS011;33679;51.218;6.786;2024-01-15T02:36:44;17.50;;;8.30;;
10582;SDS011;33679;51.218;6.786;2024-01-15T02:39:18;17.30;;;7.97;;
10582;SDS011;33679;51.218;6.786;2024-01-15T02:41:51;15.40;;;9.30;;
10582;SDS011;33679;51.218;6.786;2024-01-15T02:44:25;15.50;;;8.50;;
10582;SDS011;33679;51.218;6.786;2024-01-15T02:46:57;17.93;;;8.70;;
10582;SDS011;33679;51.218;6.786;2024-01-15T02:49:30;19.37;;;9.87;;
10582;SDS011;33679;51.218;6.786;2024-01-15T02:52:03;18.57;;;8.63;;
10582;SDS011;33679;51.218;6.786;2024-01-15T02:54:37;20.97;;;10.20;;
10582;SDS011;33679;51.218;6.786;2024-01-15T02:57:10;15.30;;;8.17;;
10582;SDS011;33679;51.218;6.786;2024-01-15T02:59:42;19.10;;;9.43;;
10582;SDS011;33679;51.218;6.786;2024-01-15T03:02:15;14.80;;;8.17;;
10582;SDS011;33679;51.218;6.786;2024-01-15T03:04:50;15.53;;;8.50;;
10582;SDS011;33679;51.218;6.786;2024-01-15T03:07:22;19.73;;;7.90;;
10582;SDS011;33679;51.218;6.786;2024-01-15T03:09:56;13.30;;;7.63;;
10582;SDS011;33679;51.218;6.786;2024-01-15T03:12:29;16.37;;;8.90;;
10582;SDS011;33679;51.218;6.786;2024-01-15T03:15:02;16.10;;;8.30;;
10582;SDS011;33679;51.218;6.786;2024-01-15T03:17:35;19.50;;;9.13;;
10582;SDS011;33679;51.218;6.786;2024-01-15T03:20:09;11.87;;;7.43;;
10582;SDS011;33679;51.218;6.786;2024-01-15T03:22:43;16.13;;;8.00;;
10582;SDS011;33679;51.218;6.786;2024-01-15T03:25:17;17.97;;;8.30;;
10582;SDS011;33679;51.218;6.786;2024-01-15T03:27:49;17.93;;;8.60;;
10582;SDS011;33679;51.218;6.786;2024-01-15T03:30:25;13.07;;;7.70;;
10582;SDS011;33679;51.218;6.786;2024-01-15T03:32:57;19.60;;;7.67;;
10582;SDS011;33679;51.218;6.786;2024-01-15T03:35:31;12.60;;;6.50;;
10582;SDS011;33679;51.218;6.786;2024-01-15T03:38:03;15.60;;;8.10;;
10582;SDS011;33679;51.218;6.786;2024-01-15T03:40:39;14.77;;;7.43;;
10582;SDS011;33679;51.218;6.786;2024-01-15T03:43:13;13.50;;;7.27;;
10582;SDS011;33679;51.218;6.786;2024-01-15T03:45:46;15.67;;;6.83;;
10582;SDS011;33679;51.218;6.786;2024-01-15T03:48:18;16.43;;;7.80;;
10582;SDS011;33679;51.218;6.786;2024-01-15T03:50:51;13.70;;;6.53;;
10582;SDS011;33679;51.218;6.786;2024-01-15T03:53:23;15.53;;;7.67;;
10582;SDS011;33679;51.218;6.786;2024-01-15T03:55:58;11.73;;;7.10;;
10582;SDS011;33679;51.218;6.786;2024-01-15T03:58:31;11.43;;;6.07;;
10582;SDS011;33679;51.218;6.786;2024-01-15T04:01:06;11.50;;;6.30;;
10582;SDS011;33679;51.218;6.786;2024-01-15T04:03:44;12.63;;;7.03;;
10582;SDS011;33679;51.218;6.786;2024-01-15T04:06:17;16.33;;;7.30;;
10582;SDS011;33679;51.218;6.786;2024-01-15T04:08:50;14.90;;;7.93;;
10582;SDS011;33679;51.218;6.786;2024-01-15T04:11:24;15.13;;;7.20;;
10582;SDS011;33679;51.218;6.786;2024-01-15T04:13:57;14.40;;;6.80;;
10582;SDS011;33679;51.218;6.786;2024-01-15T04:16:29;13.53;;;7.00;;
10582;SDS011;33679;51.218;6.786;2024-01-15T04:19:02;9.33;;;6.73;;
10582;SDS011;33679;51.218;6.786;2024-01-15T04:21:35;14.63;;;7.43;;
10582;SDS011;33679;51.218;6.786;2024-01-15T04:24:09;12.30;;;6.70;;
10582;SDS011;33679;51.218;6.786;2024-01-15T04:26:45;10.13;;;7.13;;
10582;SDS011;33679;51.218;6.786;2024-01-15T04:29:17;10.93;;;7.00;;
10582;SDS011;33679;51.218;6.786;2024-01-15T04:31:50;14.67;;;7.10;;
10582;SDS011;33679;51.218;6.786;2024-01-15T04:34:23;13.63;;;6.80;;
10582;SDS011;33679;51.218;6.786;2024-01-15T04:36:56;14.50;;;7.30;;
10582;SDS011;33679;51.218;6.786;2024-01-15T04:39:30;13.97;;;6.60;;
10582;SDS011;33679;51.218;6.786;2024-01-15T04:42:06;9.87;;;6.53;;
10582;SDS011;33679;51.218;6.786;2024-01-15T04:44:39;9.53;;;5.97;;
10582;SDS011;33679;51.218;6.786;2024-01-15T04:47:13;17.97;;;6.33;;
10582;SDS011;33679;51.218;6.786;2024-01-15T04:49:48;14.50;;;7.10;;
10582;SDS011;33679;51.218;6.786;2024-01-15T04:52:23;11.70;;;6.43;;
10582;SDS011;33679;51.218;6.786;2024-01-15T04:54:56;9.17;;;5.80;;
10582;SDS011;33679;51.218;6.786;2024-01-15T04:57:30;10.53;;;6.73;;
10582;SDS011;33679;51.218;6.786;2024-01-15T05:00:02;9.50;;;5.73;;
10582;SDS011;33679;51.218;6.786;2024-01-15T05:02:36;14.80;;;6.70;;
10582;SDS011;33679;51.218;6.786;2024-01-15T05:05:09;9.10;;;5.33;;
10582;SDS011;33679;51.218;6.786;2024-01-15T05:07:42;12.20;;;6.63;;
10582;SDS011;33679;51.218;6.786;2024-01-15T05:10:14;11.40;;;5.43;;
10582;SDS011;33679;51.218;6.786;2024-01-15T05:12:48;10.33;;;5.23;;
10582;SDS011;33679;51.218;6.786;2024-01-15T05:15:21;10.97;;;6.13;;
10582;SDS011;33679;51.218;6.786;2024-01-15T05:17:54;9.33;;;5.17;;
10582;SDS011;33679;51.218;6.786;2024-01-15T05:20:27;8.63;;;5.43;;
10582;SDS011;33679;51.218;6.786;2024-01-15T05:23:00;12.47;;;4.90;;
10582;SDS011;33679;51.218;6.786;2024-01-15T05:25:33;13.60;;;5.70;;
10582;SDS011;33679;51.218;6.786;2024-01-15T05:28:07;8.70;;;4.77;;
10582;SDS011;33679;51.218;6.786;2024-01-15T05:30:40;10.90;;;5.27;;
10582;SDS011;33679;51.218;6.786;2024-01-15T05:33:13;13.50;;;5.10;;
10582;SDS011;33679;51.218;6.786;2024-01-15T05:35:46;8.77;;;5.00;;
10582;SDS011;33679;51.218;6.786;2024-01-15T05:38:19;7.20;;;4.53;;
10582;SDS011;33679;51.218;6.786;2024-01-15T05:43:59;8.10;;;4.67;;
10582;SDS011;33679;51.218;6.786;2024-01-15T05:46:32;9.00;;;5.37;;
10582;SDS011;33679;51.218;6.786;2024-01-15T05:49:10;8.07;;;5.07;;
10582;SDS011;33679;51.218;6.786;2024-01-15T05:51:46;7.53;;;4.80;;
10582;SDS011;33679;51.218;6.786;2024-01-15T05:54:19;8.53;;;4.63;;
10582;SDS011;33679;51.218;6.786;2024-01-15T05:56:52;8.90;;;5.10;;
10582;SDS011;33679;51.218;6.786;2024-01-15T05:59:27;8.60;;;5.27;;
10582;SDS011;33679;51.218;6.786;2024-01-15T06:02:02;6.37;;;4.87;;
10582;SDS011;33679;51.218;6.786;2024-01-15T06:04:36;9.50;;;5.00;;
10582;SDS011;33679;51.218;6.786;2024-01-15T06:07:09;8.43;;;5.30;;
10582;SDS011;33679;51.218;6.786;2024-01-15T06:09:41;14.67;;;4.63;;
10582;SDS011;33679;51.218;6.786;2024-01-15T06:12:14;5.20;;;4.20;;
10582;SDS011;33679;51.218;6.786;2024-01-15T06:14:48;10.67;;;4.90;;
10582;SDS011;33679;51.218;6.786;2024-01-15T06:17:21;6.43;;;3.67;;
10582;SDS011;33679;51.218;6.786;2024-01-15T06:19:54;6.70;;;4.40;;
10582;SDS011;33679;51.218;6.786;2024-01-15T06:22:27;6.47;;;4.53;;
10582;SDS011;33679;51.218;6.786;2024-01-15T06:24:59;8.00;;;4.63;;
10582;SDS011;33679;51.218;6.786;2024-01-15T06:27:33;6.30;;;4.00;;
10582;SDS011;33679;51.218;6.786;2024-01-15T06:30:09;7.67;;;5.10;;
10582;SDS011;33679;51.218;6.786;2024-01-15T06:32:43;10.23;;;4.70;;
10582;SDS011;33679;51.218;6.786;2024-01-15T06:35:18;8.70;;;5.03;;
10582;SDS011;33679;51.218;6.786;2024-01-15T06:37:53;12.70;;;4.50;;
10582;SDS011;33679;51.218;6.786;2024-01-15T06:40:25;7.70;;;4.30;;
10582;SDS011;33679;51.218;6.786;2024-01-15T06:42:58;7.40;;;3.63;;
10582;SDS011;33679;51.218;6.786;2024-01-15T06:45:32;4.20;;;3.03;;
10582;SDS011;33679;51.218;6.786;2024-01-15T06:48:05;3.10;;;2.80;;
10582;SDS011;33679;51.218;6.786;2024-01-15T06:50:38;4.97;;;3.23;;
10582;SDS011;33679;51.218;6.786;2024-01-15T06:53:12;4.73;;;3.27;;
10582;SDS011;33679;51.218;6.786;2024-01-15T06:55:44;8.40;;;4.70;;
10582;SDS011;33679;51.218;6.786;2024-01-15T06:58:18;10.10;;;3.57;;
10582;SDS011;33679;51.218;6.786;2024-01-15T07:00:52;11.13;;;4.33;;
10582;SDS011;33679;51.218;6.786;2024-01-15T07:03:27;7.10;;;4.17;;
10582;SDS011;33679;51.218;6.786;2024-01-15T07:05:59;10.83;;;4.53;;
10582;SDS011;33679;51.218;6.786;2024-01-15T07:08:32;5.93;;;4.13;;
10582;SDS011;33679;51.218;6.786;2024-01-15T07:11:04;8.33;;;4.40;;
10582;SDS011;33679;51.218;6.786;2024-01-15T07:13:37;12.93;;;6.00;;
10582;SDS011;33679;51.218;6.786;2024-01-15T07:16:12;6.93;;;4.27;;
10582;SDS011;33679;51.218;6.786;2024-01-15T07:18:48;8.37;;;4.70;;
10582;SDS011;33679;51.218;6.786;2024-01-15T07:21:20;6.97;;;5.50;;
10582;SDS011;33679;51.218;6.786;2024-01-15T07:23:52;8.10;;;4.70;;
10582;SDS011;33679;51.218;6.786;2024-01-15T07:26:27;6.77;;;4.80;;
10582;SDS011;33679;51.218;6.786;2024-01-15T07:29:02;10.00;;;6.30;;
10582;SDS011;33679;51.218;6.786;2024-01-15T07:31:36;8.60;;;5.33;;
10582;SDS011;33679;51.218;6.786;2024-01-15T07:34:10;9.70;;;5.83;;
10582;SDS011;33679;51.218;6.786;2024-01-15T07:36:43;8.87;;;5.63;;
10582;SDS011;33679;51.218;6.786;2024-01-15T07:39:16;10.10;;;5.10;;
10582;SDS011;33679;51.218;6.786;2024-01-15T07:41:49;11.97;;;5.90;;
10582;SDS011;33679;51.218;6.786;2024-01-15T07:44:22;13.90;;;6.23;;
10582;SDS011;33679;51.218;6.786;2024-01-15T07:46:57;9.60;;;6.00;;
10582;SDS011;33679;51.218;6.786;2024-01-15T07:49:29;14.13;;;5.40;;
10582;SDS011;33679;51.218;6.786;2024-01-15T07:52:06;9.60;;;6.10;;
10582;SDS011;33679;51.218;6.786;2024-01-15T07:54:43;6.90;;;4.93;;
10582;SDS011;33679;51.218;6.786;2024-01-15T07:57:19;9.87;;;5.83;;
10582;SDS011;33679;51.218;6.786;2024-01-15T07:59:54;10.70;;;6.10;;
10582;SDS011;33679;51.218;6.786;2024-01-15T08:02:27;9.90;;;5.70;;
10582;SDS011;33679;51.218;6.786;2024-01-15T08:05:00;11.50;;;5.33;;
10582;SDS011;33679;51.218;6.786;2024-01-15T08:07:37;7.37;;;5.10;;
10582;SDS011;33679;51.218;6.786;2024-01-15T08:10:09;10.27;;;6.27;;
10582;SDS011;33679;51.218;6.786;2024-01-15T08:12:46;7.93;;;5.33;;
10582;SDS011;33679;51.218;6.786;2024-01-15T08:18:31;11.17;;;6.73;;
10582;SDS011;33679;51.218;6.786;2024-01-15T08:21:07;10.77;;;7.17;;
10582;SDS011;33679;51.218;6.786;2024-01-15T08:23:42;13.50;;;7.77;;
10582;SDS011;33679;51.218;6.786;2024-01-15T08:26:15;8.43;;;6.20;;
10582;SDS011;33679;51.218;6.786;2024-01-15T08:28:48;10.87;;;5.63;;
10582;SDS011;33679;51.218;6.786;2024-01-15T08:31:22;11.07;;;6.20;;
10582;SDS011;33679;51.218;6.786;2024-01-15T08:33:57;10.80;;;7.07;;
10582;SDS011;33679;51.218;6.786;2024-01-15T08:36:30;11.03;;;6.47;;
10582;SDS011;33679;51.218;6.786;2024-01-15T08:39:06;9.60;;;6.00;;
10582;SDS011;33679;51.218;6.786;2024-01-15T08:41:40;9.40;;;6.80;;
10582;SDS011;33679;51.218;6.786;2024-01-15T08:44:12;10.10;;;6.10;;
10582;SDS011;33679;51.218;6.786;2024-01-15T08:46:46;9.83;;;6.47;;
10582;SDS011;33679;51.218;6.786;2024-01-15T08:49:27;10.40;;;6.23;;
10582;SDS011;33679;51.218;6.786;2024-01-15T08:52:04;14.33;;;7.60;;
10582;SDS011;33679;51.218;6.786;2024-01-15T08:54:38;10.03;;;5.90;;
10582;SDS011;33679;51.218;6.786;2024-01-15T09:00:14;10.50;;;6.10;;
10582;SDS011;33679;51.218;6.786;2024-01-15T09:02:49;11.30;;;6.77;;
10582;SDS011;33679;51.218;6.786;2024-01-15T09:05:30;11.47;;;6.30;;
10582;SDS011;33679;51.218;6.786;2024-01-15T09:08:04;11.10;;;6.43;;
10582;SDS011;33679;51.218;6.786;2024-01-15T09:10:44;9.67;;;6.27;;
10582;SDS011;33679;51.218;6.786;2024-01-15T09:13:18;10.97;;;6.53;;
10582;SDS011;33679;51.218;6.786;2024-01-15T09:15:51;10.57;;;6.40;;
10582;SDS011;33679;51.218;6.786;2024-01-15T09:18:33;10.40;;;5.80;;
10582;SDS011;33679;51.218;6.786;2024-01-15T09:21:13;8.93;;;6.30;;
10582;SDS011;33679;51.218;6.786;2024-01-15T09:23:47;11.17;;;8.30;;
10582;SDS011;33679;51.218;6.786;2024-01-15T09:26:20;10.83;;;7.20;;
10582;SDS011;33679;51.218;6.786;2024-01-15T09:28:52;7.97;;;6.63;;
10582;SDS011;33679;51.218;6.786;2024-01-15T09:31:27;13.67;;;7.20;;
10582;SDS011;33679;51.218;6.786;2024-01-15T09:34:00;7.90;;;5.93;;
10582;SDS011;33679;51.218;6.786;2024-01-15T09:36:40;8.37;;;5.90;;
10582;SDS011;33679;51.218;6.786;2024-01-15T09:39:15;11.80;;;6.67;;
10582;SDS011;33679;51.218;6.786;2024-01-15T09:41:53;8.23;;;5.57;;
10582;SDS011;33679;51.218;6.786;2024-01-15T09:44:26;7.37;;;5.23;;
10582;SDS011;33679;51.218;6.786;2024-01-15T09:47:03;7.17;;;4.90;;
10582;SDS011;33679;51.218;6.786;2024-01-15T09:49:37;6.80;;;4.70;;
10582;SDS011;33679;51.218;6.786;2024-01-15T09:52:17;11.00;;;4.63;;
10582;SDS011;33679;51.218;6.786;2024-01-15T09:54:53;8.83;;;6.07;;
10582;SDS011;33679;51.218;6.786;2024-01-15T09:57:29;9.10;;;6.50;;
10582;SDS011;33679;51.218;6.786;2024-01-15T10:00:06;5.60;;;4.67;;
10582;SDS011;33679;51.218;6.786;2024-01-15T10:02:42;6.40;;;4.63;;
10582;SDS011;33679;51.218;6.786;2024-01-15T10:05:14;8.20;;;4.70;;
10582;SDS011;33679;51.218;6.786;2024-01-15T10:07:50;6.50;;;4.30;;
10582;SDS011;33679;51.218;6.786;2024-01-15T10:10:28;8.30;;;4.00;;
10582;SDS011;33679;51.218;6.786;2024-01-15T10:13:05;4.47;;;3.70;;
10582;SDS011;33679;51.218;6.786;2024-01-15T10:15:45;6.27;;;3.50;;
10582;SDS011;33679;51.218;6.786;2024-01-15T10:18:20;4.00;;;3.30;;
10582;SDS011;33679;51.218;6.786;2024-01-15T10:20:52;4.00;;;3.30;;
10582;SDS011;33679;51.218;6.786;2024-01-15T10:23:29;7.40;;;3.67;;
10582;SDS011;33679;51.218;6.786;2024-01-15T10:26:06;3.43;;;3.10;;
10582;SDS011;33679;51.218;6.786;2024-01-15T10:28:42;3.03;;;2.80;;
10582;SDS011;33679;51.218;6.786;2024-01-15T10:31:15;3.87;;;2.97;;
10582;SDS011;33679;51.218;6.786;2024-01-15T10:33:54;5.50;;;2.77;;
10582;SDS011;33679;51.218;6.786;2024-01-15T10:36:43;4.30;;;3.07;;
10582;SDS011;33679;51.218;6.786;2024-01-15T10:39:27;3.30;;;3.00;;
10582;SDS011;33679;51.218;6.786;2024-01-15T10:42:01;3.60;;;2.80;;
10582;SDS011;33679;51.218;6.786;2024-01-15T10:44:35;3.57;;;2.87;;
10582;SDS011;33679;51.218;6.786;2024-01-15T10:47:09;3.97;;;2.90;;
10582;SDS011;33679;51.218;6.786;2024-01-15T10:49:47;3.50;;;2.97;;
10582;SDS011;33679;51.218;6.786;2024-01-15T10:52:19;4.83;;;2.87;;
10582;SDS011;33679;51.218;6.786;2024-01-15T10:54:56;4.00;;;3.37;;
10582;SDS011;33679;51.218;6.786;2024-01-15T10:57:32;2.90;;;2.47;;
10582;SDS011;33679;51.218;6.786;2024-01-15T11:00:09;3.43;;;2.93;;
10582;SDS011;33679;51.218;6.786;2024-01-15T11:02:45;3.60;;;2.13;;
10582;SDS011;33679;51.218;6.786;2024-01-15T11:05:26;4.70;;;2.50;;
10582;SDS011;33679;51.218;6.786;2024-01-15T11:07:59;3.60;;;2.00;;
10582;SDS011;33679;51.218;6.786;2024-01-15T11:10:58;2.03;;;1.83;;
10582;SDS011;33679;51.218;6.786;2024-01-15T11:13:41;1.53;;;1.43;;
10582;SDS011;33679;51.218;6.786;2024-01-15T11:16:15;3.13;;;1.93;;
10582;SDS011;33679;51.218;6.786;2024-01-15T11:19:04;2.17;;;1.70;;
10582;SDS011;33679;51.218;6.786;2024-01-15T11:21:41;3.27;;;1.60;;
10582;SDS011;33679;51.218;6.786;2024-01-15T11:27:14;2.50;;;1.80;;
10582;SDS011;33679;51.218;6.786;2024-01-15T11:30:14;4.97;;;1.60;;
10582;SDS011;33679;51.218;6.786;2024-01-15T11:32:55;2.90;;;1.37;;
10582;SDS011;33679;51.218;6.786;2024-01-15T11:35:48;4.27;;;1.43;;
10582;SDS011;33679;51.218;6.786;2024-01-15T11:38:29;4.40;;;1.83;;
10582;SDS011;33679;51.218;6.786;2024-01-15T11:41:14;2.03;;;1.70;;
10582;SDS011;33679;51.218;6.786;2024-01-15T11:43:53;3.03;;;2.40;;
10582;SDS011;33679;51.218;6.786;2024-01-15T11:46:37;4.37;;;2.77;;
10582;SDS011;33679;51.218;6.786;2024-01-15T11:49:23;2.23;;;1.80;;
10582;SDS011;33679;51.218;6.786;2024-01-15T11:52:11;6.93;;;2.07;;
10582;SDS011;33679;51.218;6.786;2024-01-15T11:54:55;2.33;;;1.50;;
10582;SDS011;33679;51.218;6.786;2024-01-15T11:57:40;4.87;;;2.23;;
10582;SDS011;33679;51.218;6.786;2024-01-15T12:00:21;3.10;;;2.50;;
10582;SDS011;33679;51.218;6.786;2024-01-15T12:02:58;3.27;;;2.13;;
10582;SDS011;33679;51.218;6.786;2024-01-15T12:05:38;7.53;;;2.40;;
10582;SDS011;33679;51.218;6.786;2024-01-15T12:08:14;2.00;;;1.80;;
10582;SDS011;33679;51.218;6.786;2024-01-15T12:10:47;2.67;;;1.90;;
10582;SDS011;33679;51.218;6.786;2024-01-15T12:13:32;2.73;;;2.27;;
10582;SDS011;33679;51.218;6.786;2024-01-15T12:16:13;3.57;;;2.20;;
10582;SDS011;33679;51.218;6.786;2024-01-15T12:18:52;5.73;;;2.87;;
10582;SDS011;33679;51.218;6.786;2024-01-15T12:21:27;5.17;;;2.40;;
10582;SDS011;33679;51.218;6.786;2024-01-15T12:24:02;3.40;;;2.30;;
10582;SDS011;33679;51.218;6.786;2024-01-15T12:26:39;2.70;;;2.33;;
10582;SDS011;33679;51.218;6.786;2024-01-15T12:29:12;5.73;;;3.60;;
10582;SDS011;33679;51.218;6.786;2024-01-15T12:31:47;5.60;;;3.63;;
10582;SDS011;33679;51.218;6.786;2024-01-15T12:34:23;5.87;;;3.70;;
10582;SDS011;33679;51.218;6.786;2024-01-15T12:36:57;5.53;;;3.83;;
10582;SDS011;33679;51.218;6.786;2024-01-15T12:39:34;4.90;;;3.40;;
10582;SDS011;33679;51.218;6.786;2024-01-15T12:42:14;5.30;;;3.53;;
10582;SDS011;33679;51.218;6.786;2024-01-15T12:44:48;6.27;;;3.70;;
10582;SDS011;33679;51.218;6.786;2024-01-15T12:47:22;9.77;;;4.37;;
10582;SDS011;33679;51.218;6.786;2024-01-15T12:49:57;9.63;;;4.07;;
10582;SDS011;33679;51.218;6.786;2024-01-15T12:52:34;6.57;;;4.37;;
10582;SDS011;33679;51.218;6.786;2024-01-15T12:55:10;4.60;;;4.03;;
10582;SDS011;33679;51.218;6.786;2024-01-15T12:57:49;6.20;;;4.23;;
10582;SDS011;33679;51.218;6.786;2024-01-15T13:03:23;3.87;;;3.57;;
10582;SDS011;33679;51.218;6.786;2024-01-15T13:06:01;6.80;;;3.57;;
10582;SDS011;33679;51.218;6.786;2024-01-15T13:08:37;5.67;;;3.87;;
10582;SDS011;33679;51.218;6.786;2024-01-15T13:11:10;5.33;;;3.40;;
10582;SDS011;33679;51.218;6.786;2024-01-15T13:13:46;4.43;;;3.20;;
10582;SDS011;33679;51.218;6.786;2024-01-15T13:16:22;2.77;;;2.33;;
10582;SDS011;33679;51.218;6.786;2024-01-15T13:18:59;6.90;;;3.20;;
10582;SDS011;33679;51.218;6.786;2024-01-15T13:21:35;4.60;;;3.03;;
10582;SDS011;33679;51.218;6.786;2024-01-15T13:24:09;4.57;;;3.13;;
10582;SDS011;33679;51.218;6.786;2024-01-15T13:26:57;3.53;;;2.57;;
10582;SDS011;33679;51.218;6.786;2024-01-15T13:29:39;2.47;;;2.20;;
10582;SDS011;33679;51.218;6.786;2024-01-15T13:32:13;4.13;;;2.30;;
10582;SDS011;33679;51.218;6.786;2024-01-15T13:34:57;3.23;;;2.47;;
10582;SDS011;33679;51.218;6.786;2024-01-15T13:37:36;4.60;;;2.37;;
10582;SDS011;33679;51.218;6.786;2024-01-15T13:40:22;3.53;;;2.33;;
10582;SDS011;33679;51.218;6.786;2024-01-15T13:43:01;2.13;;;1.90;;
10582;SDS011;33679;51.218;6.786;2024-01-15T13:45:45;5.43;;;2.17;;
10582;SDS011;33679;51.218;6.786;2024-01-15T13:48:21;3.73;;;1.93;;
10582;SDS011;33679;51.218;6.786;2024-01-15T13:51:00;2.00;;;1.80;;
10582;SDS011;33679;51.218;6.786;2024-01-15T13:53:37;2.30;;;1.70;;
10582;SDS011;33679;51.218;6.786;2024-01-15T13:56:14;1.97;;;1.70;;
10582;SDS011;33679;51.218;6.786;2024-01-15T13:58:48;1.57;;;1.47;;
10582;SDS011;33679;51.218;6.786;2024-01-15T14:01:23;2.40;;;1.47;;
10582;SDS011;33679;51.218;6.786;2024-01-15T14:03:57;5.93;;;1.33;;
10582;SDS011;33679;51.218;6.786;2024-01-15T14:06:31;1.80;;;1.13;;
10582;SDS011;33679;51.218;6.786;2024-01-15T14:09:07;2.03;;;1.50;;
10582;SDS011;33679;51.218;6.786;2024-01-15T14:11:40;1.30;;;1.13;;
10582;SDS011;33679;51.218;6.786;2024-01-15T14:14:16;3.13;;;1.40;;
10582;SDS011;33679;51.218;6.786;2024-01-15T14:16:52;2.30;;;1.00;;
10582;SDS011;33679;51.218;6.786;2024-01-15T14:19:29;1.50;;;1.07;;
10582;SDS011;33679;51.218;6.786;2024-01-15T14:22:04;1.20;;;1.10;;
10582;SDS011;33679;51.218;6.786;2024-01-15T14:24:38;3.53;;;1.20;;
10582;SDS011;33679;51.218;6.786;2024-01-15T14:27:19;1.63;;;1.33;;
10582;SDS011;33679;51.218;6.786;2024-01-15T14:29:52;1.30;;;1.00;;
10582;SDS011;33679;51.218;6.786;2024-01-15T14:32:32;1.87;;;1.40;;
10582;SDS011;33679;51.218;6.786;2024-01-15T14:35:12;1.77;;;1.33;;
10582;SDS011;33679;51.218;6.786;2024-01-15T14:45:15;1.30;;;1.20;;
10582;SDS011;33679;51.218;6.786;2024-01-15T14:48:18;1.20;;;1.10;;
10582;SDS011;33679;51.218;6.786;2024-01-15T14:50:58;2.50;;;1.30;;
10582;SDS011;33679;51.218;6.786;2024-01-15T14:53:32;1.33;;;1.23;;
10582;SDS011;33679;51.218;6.786;2024-01-15T14:56:07;1.40;;;1.20;;
10582;SDS011;33679;51.218;6.786;2024-01-15T14:58:45;2.47;;;1.50;;
10582;SDS011;33679;51.218;6.786;2024-01-15T15:01:18;1.83;;;1.27;;
10582;SDS011;33679;51.218;6.786;2024-01-15T15:03:56;2.27;;;1.40;;
10582;SDS011;33679;51.218;6.786;2024-01-15T15:06:34;3.03;;;1.33;;
10582;SDS011;33679;51.218;6.786;2024-01-15T15:09:11;1.50;;;1.10;;
10582;SDS011;33679;51.218;6.786;2024-01-15T15:11:46;3.03;;;1.67;;
10582;SDS011;33679;51.218;6.786;2024-01-15T15:14:20;2.00;;;1.27;;
10582;SDS011;33679;51.218;6.786;2024-01-15T15:16:52;1.30;;;1.20;;
10582;SDS011;33679;51.218;6.786;2024-01-15T15:19:26;1.50;;;1.40;;
10582;SDS011;33679;51.218;6.786;2024-01-15T15:22:05;1.43;;;1.30;;
10582;SDS011;33679;51.218;6.786;2024-01-15T15:24:44;1.63;;;1.30;;
10582;SDS011;33679;51.218;6.786;2024-01-15T15:27:16;1.87;;;1.10;;
10582;SDS011;33679;51.218;6.786;2024-01-15T15:29:51;1.43;;;1.33;;
10582;SDS011;33679;51.218;6.786;2024-01-15T15:32:26;2.33;;;1.20;;
10582;SDS011;33679;51.218;6.786;2024-01-15T15:35:06;1.40;;;1.27;;
10582;SDS011;33679;51.218;6.786;2024-01-15T15:37:40;1.33;;;1.23;;
10582;SDS011;33679;51.218;6.786;2024-01-15T15:40:17;3.07;;;1.80;;
10582;SDS011;33679;51.218;6.786;2024-01-15T15:42:59;1.40;;;1.30;;
10582;SDS011;33679;51.218;6.786;2024-01-15T15:45:36;2.33;;;1.50;;
10582;SDS011;33679;51.218;6.786;2024-01-15T15:48:16;3.03;;;1.50;;
10582;SDS011;33679;51.218;6.786;2024-01-15T15:51:00;2.13;;;1.43;;
10582;SDS011;33679;51.218;6.786;2024-01-15T15:53:36;2.00;;;1.80;;